sensor_id;sensor_type;location;lat;lon;timestamp;temperature;humidity
39875;DHT22;25547;52.530;13.194;2023-02-05T00:01:34;-0.20;99.90
39875;DHT22;25547;52.530;13.194;2023-02-05T00:04:02;-0.20;99.90
39875;DHT22;25547;52.530;13.194;2023-02-05T00:06:28;-0.20;99.90
39875;DHT22;25547;52.530;13.194;2023-02-05T00:08:55;-0.20;99.90
39875;DHT22;25547;52.530;13.194;2023-02-05T00:11:22;-0.20;99.90
39875;DHT22;25547;52.530;13.194;2023-02-05T00:13:47;-0.20;99.90
39875;DHT22;25547;52.530;13.194;2023-02-05T00:16:17;-0.20;99.90
39875;DHT22;25547;52.530;13.194;2023-02-05T00:18:44;-0.30;99.90
39875;DHT22;25547;52.530;13.194;2023-02-05T00:21:11;-0.50;99.90
39875;DHT22;25547;52.530;13.194;2023-02-05T00:23:38;-0.60;99.90
39875;DHT22;25547;52.530;13.194;2023-02-05T00:26:04;-0.70;99.90
39875;DHT22;25547;52.530;13.194;2023-02-05T00:28:31;-0.80;99.90
39875;DHT22;25547;52.530;13.194;2023-02-05T00:30:57;-0.90;99.90
39875;DHT22;25547;52.530;13.194;2023-02-05T00:33:23;-0.90;99.90
39875;DHT22;25547;52.530;13.194;2023-02-05T00:35:49;-1.00;99.90
39875;DHT22;25547;52.530;13.194;2023-02-05T00:38:16;-1.00;99.90
39875;DHT22;25547;52.530;13.194;2023-02-05T00:40:43;-1.00;99.90
39875;DHT22;25547;52.530;13.194;2023-02-05T00:43:11;-1.00;99.90
39875;DHT22;25547;52.530;13.194;2023-02-05T00:45:36;-1.10;99.90
39875;DHT22;25547;52.530;13.194;2023-02-05T00:48:03;-1.10;99.90
39875;DHT22;25547;52.530;13.194;2023-02-05T00:50:30;-1.10;99.90
39875;DHT22;25547;52.530;13.194;2023-02-05T00:52:56;-1.10;99.90
39875;DHT22;25547;52.530;13.194;2023-02-05T00:55:22;-1.00;99.90
39875;DHT22;25547;52.530;13.194;2023-02-05T00:57:50;-0.90;99.90
39875;DHT22;25547;52.530;13.194;2023-02-05T01:00:16;-0.90;99.90
39875;DHT22;25547;52.530;13.194;2023-02-05T01:02:42;-0.90;99.90
39875;DHT22;25547;52.530;13.194;2023-02-05T01:05:10;-0.90;99.90
39875;DHT22;25547;52.530;13.194;2023-02-05T01:07:36;-1.10;99.90
39875;DHT22;25547;52.530;13.194;2023-02-05T01:10:04;-1.20;99.90
39875;DHT22;25547;52.530;13.194;2023-02-05T01:12:31;-1.20;99.90
39875;DHT22;25547;52.530;13.194;2023-02-05T01:14:59;-1.20;99.90
39875;DHT22;25547;52.530;13.194;2023-02-05T01:17:27;-1.10;99.90
39875;DHT22;25547;52.530;13.194;2023-02-05T01:19:55;-1.20;99.90
39875;DHT22;25547;52.530;13.194;2023-02-05T01:22:23;-1.20;99.90
39875;DHT22;25547;52.530;13.194;2023-02-05T01:24:51;-1.20;99.90
39875;DHT22;25547;52.530;13.194;2023-02-05T01:27:17;-1.40;99.90
39875;DHT22;25547;52.530;13.194;2023-02-05T01:29:42;-1.40;99.90
39875;DHT22;25547;52.530;13.194;2023-02-05T01:32:08;-1.60;99.90
39875;DHT22;25547;52.530;13.194;2023-02-05T01:34:34;-1.70;99.90
39875;DHT22;25547;52.530;13.194;2023-02-05T01:37:00;-1.70;99.90
39875;DHT22;25547;52.530;13.194;2023-02-05T01:39:28;-1.80;99.90
39875;DHT22;25547;52.530;13.194;2023-02-05T01:41:56;-1.80;99.90
39875;DHT22;25547;52.530;13.194;2023-02-05T01:44:22;-1.80;99.90
39875;DHT22;25547;52.530;13.194;2023-02-05T01:46:54;-1.80;99.90
39875;DHT22;25547;52.530;13.194;2023-02-05T01:49:41;-1.70;99.90
39875;DHT22;25547;52.530;13.194;2023-02-05T01:52:14;-1.60;99.90
39875;DHT22;25547;52.530;13.194;2023-02-05T01:54:45;-1.60;99.90
39875;DHT22;25547;52.530;13.194;2023-02-05T01:57:18;-1.70;99.90
39875;DHT22;25547;52.530;13.194;2023-02-05T01:59:46;-1.90;99.90
39875;DHT22;25547;52.530;13.194;2023-02-05T02:02:13;-1.90;99.90
39875;DHT22;25547;52.530;13.194;2023-02-05T02:04:47;-2.10;99.90
39875;DHT22;25547;52.530;13.194;2023-02-05T02:07:22;-2.00;99.90
39875;DHT22;25547;52.530;13.194;2023-02-05T02:09:49;-1.90;99.90
39875;DHT22;25547;52.530;13.194;2023-02-05T02:12:21;-1.90;99.90
39875;DHT22;25547;52.530;13.194;2023-02-05T02:14:51;-2.00;99.90
39875;DHT22;25547;52.530;13.194;2023-02-05T02:17:18;-2.00;99.90
39875;DHT22;25547;52.530;13.194;2023-02-05T02:19:59;-2.00;99.90
39875;DHT22;25547;52.530;13.194;2023-02-05T02:28:31;-1.90;99.90
39875;DHT22;25547;52.530;13.194;2023-02-05T02:31:11;-1.80;99.90
39875;DHT22;25547;52.530;13.194;2023-02-05T02:33:58;-1.60;99.90
39875;DHT22;25547;52.530;13.194;2023-02-05T02:36:28;-1.70;99.90
39875;DHT22;25547;52.530;13.194;2023-02-05T02:39:20;-1.60;99.90
39875;DHT22;25547;52.530;13.194;2023-02-05T02:41:51;-1.70;99.90
39875;DHT22;25547;52.530;13.194;2023-02-05T02:44:25;-1.70;99.90
39875;DHT22;25547;52.530;13.194;2023-02-05T02:46:58;-1.60;99.90
39875;DHT22;25547;52.530;13.194;2023-02-05T02:49:30;-1.70;99.90
39875;DHT22;25547;52.530;13.194;2023-02-05T02:51:57;-1.70;99.90
39875;DHT22;25547;52.530;13.194;2023-02-05T02:54:26;-1.70;99.90
39875;DHT22;25547;52.530;13.194;2023-02-05T02:56:53;-1.70;99.90
39875;DHT22;25547;52.530;13.194;2023-02-05T02:59:23;-1.90;99.90
39875;DHT22;25547;52.530;13.194;2023-02-05T03:01:55;-2.00;99.90
39875;DHT22;25547;52.530;13.194;2023-02-05T03:04:33;-2.10;99.90
39875;DHT22;25547;52.530;13.194;2023-02-05T03:07:28;-2.10;99.90
39875;DHT22;25547;52.530;13.194;2023-02-05T03:10:13;-2.20;99.90
39875;DHT22;25547;52.530;13.194;2023-02-05T03:12:42;-2.20;99.90
39875;DHT22;25547;52.530;13.194;2023-02-05T03:15:09;-2.20;99.90
39875;DHT22;25547;52.530;13.194;2023-02-05T03:17:35;-2.30;99.90
39875;DHT22;25547;52.530;13.194;2023-02-05T03:20:26;-2.40;99.90
39875;DHT22;25547;52.530;13.194;2023-02-05T03:22:54;-2.50;99.90
39875;DHT22;25547;52.530;13.194;2023-02-05T03:25:24;-2.40;99.90
39875;DHT22;25547;52.530;13.194;2023-02-05T03:27:52;-2.40;99.90
39875;DHT22;25547;52.530;13.194;2023-02-05T03:30:24;-2.40;99.90
39875;DHT22;25547;52.530;13.194;2023-02-05T03:33:21;-2.40;99.90
39875;DHT22;25547;52.530;13.194;2023-02-05T03:39:14;-2.20;99.90
39875;DHT22;25547;52.530;13.194;2023-02-05T03:41:50;-2.10;99.90
39875;DHT22;25547;52.530;13.194;2023-02-05T03:55:45;-2.40;99.90
39875;DHT22;25547;52.530;13.194;2023-02-05T03:58:22;-2.30;99.90
39875;DHT22;25547;52.530;13.194;2023-02-05T04:00:49;-2.30;99.90
39875;DHT22;25547;52.530;13.194;2023-02-05T04:03:15;-2.20;99.90
39875;DHT22;25547;52.530;13.194;2023-02-05T04:05:41;-2.20;99.90
39875;DHT22;25547;52.530;13.194;2023-02-05T04:08:09;-2.30;99.90
39875;DHT22;25547;52.530;13.194;2023-02-05T04:10:35;-2.20;99.90
39875;DHT22;25547;52.530;13.194;2023-02-05T04:13:06;-2.20;99.90
39875;DHT22;25547;52.530;13.194;2023-02-05T04:15:36;-2.20;99.90
39875;DHT22;25547;52.530;13.194;2023-02-05T04:18:02;-2.10;99.90
39875;DHT22;25547;52.530;13.194;2023-02-05T04:20:30;-2.00;99.90
39875;DHT22;25547;52.530;13.194;2023-02-05T04:22:55;-2.00;99.90
39875;DHT22;25547;52.530;13.194;2023-02-05T04:25:23;-1.90;99.90
39875;DHT22;25547;52.530;13.194;2023-02-05T04:27:49;-1.90;99.90
39875;DHT22;25547;52.530;13.194;2023-02-05T04:30:14;-1.90;99.90
39875;DHT22;25547;52.530;13.194;2023-02-05T04:32:40;-1.90;99.90
39875;DHT22;25547;52.530;13.194;2023-02-05T04:35:08;-1.80;99.90
39875;DHT22;25547;52.530;13.194;2023-02-05T04:37:36;-1.90;99.90
39875;DHT22;25547;52.530;13.194;2023-02-05T04:40:04;-1.90;99.90
39875;DHT22;25547;52.530;13.194;2023-02-05T04:42:30;-1.90;99.90
39875;DHT22;25547;52.530;13.194;2023-02-05T04:44:56;-1.80;99.90
39875;DHT22;25547;52.530;13.194;2023-02-05T04:47:24;-1.90;99.90
39875;DHT22;25547;52.530;13.194;2023-02-05T04:49:49;-1.90;99.90
39875;DHT22;25547;52.530;13.194;2023-02-05T04:52:17;-1.90;99.90
39875;DHT22;25547;52.530;13.194;2023-02-05T04:54:43;-2.00;99.90
39875;DHT22;25547;52.530;13.194;2023-02-05T04:57:08;-2.00;99.90
39875;DHT22;25547;52.530;13.194;2023-02-05T04:59:37;-2.00;99.90
39875;DHT22;25547;52.530;13.194;2023-02-05T05:02:02;-2.10;99.90
39875;DHT22;25547;52.530;13.194;2023-02-05T05:04:30;-2.10;99.90
39875;DHT22;25547;52.530;13.194;2023-02-05T05:06:56;-2.00;99.90
39875;DHT22;25547;52.530;13.194;2023-02-05T05:09:25;-2.00;99.90
39875;DHT22;25547;52.530;13.194;2023-02-05T05:11:52;-2.00;99.90
39875;DHT22;25547;52.530;13.194;2023-02-05T05:14:21;-2.10;99.90
39875;DHT22;25547;52.530;13.194;2023-02-05T05:16:48;-2.10;99.90
39875;DHT22;25547;52.530;13.194;2023-02-05T05:19:16;-2.10;99.90
39875;DHT22;25547;52.530;13.194;2023-02-05T05:21:44;-2.00;99.90
39875;DHT22;25547;52.530;13.194;2023-02-05T05:24:12;-1.90;99.90
39875;DHT22;25547;52.530;13.194;2023-02-05T05:26:38;-1.90;99.90
39875;DHT22;25547;52.530;13.194;2023-02-05T05:29:12;-1.80;99.90
39875;DHT22;25547;52.530;13.194;2023-02-05T05:31:44;-1.70;99.90
39875;DHT22;25547;52.530;13.194;2023-02-05T05:34:10;-1.80;99.90
39875;DHT22;25547;52.530;13.194;2023-02-05T05:36:35;-1.70;99.90
39875;DHT22;25547;52.530;13.194;2023-02-05T05:39:01;-1.80;99.90
39875;DHT22;25547;52.530;13.194;2023-02-05T05:41:45;-1.90;99.90
39875;DHT22;25547;52.530;13.194;2023-02-05T05:44:29;-2.00;99.90
39875;DHT22;25547;52.530;13.194;2023-02-05T05:46:57;-2.10;99.90
39875;DHT22;25547;52.530;13.194;2023-02-05T05:49:23;-2.20;99.90
39875;DHT22;25547;52.530;13.194;2023-02-05T05:51:49;-2.20;99.90
39875;DHT22;25547;52.530;13.194;2023-02-05T05:54:17;-2.20;99.90
39875;DHT22;25547;52.530;13.194;2023-02-05T05:56:45;-2.20;99.90
39875;DHT22;25547;52.530;13.194;2023-02-05T05:59:12;-2.10;99.90
39875;DHT22;25547;52.530;13.194;2023-02-05T06:01:40;-2.10;99.90
39875;DHT22;25547;52.530;13.194;2023-02-05T06:04:05;-2.00;99.90
39875;DHT22;25547;52.530;13.194;2023-02-05T06:06:31;-2.10;99.90
39875;DHT22;25547;52.530;13.194;2023-02-05T06:08:58;-2.10;99.90
39875;DHT22;25547;52.530;13.194;2023-02-05T06:11:24;-2.10;99.90
39875;DHT22;25547;52.530;13.194;2023-02-05T06:13:50;-2.00;99.90
39875;DHT22;25547;52.530;13.194;2023-02-05T06:16:18;-1.90;99.90
39875;DHT22;25547;52.530;13.194;2023-02-05T06:18:46;-1.90;99.90
39875;DHT22;25547;52.530;13.194;2023-02-05T06:21:14;-1.80;99.90
39875;DHT22;25547;52.530;13.194;2023-02-05T06:23:39;-1.70;99.90
39875;DHT22;25547;52.530;13.194;2023-02-05T06:26:09;-1.80;99.90
39875;DHT22;25547;52.530;13.194;2023-02-05T06:28:35;-1.90;99.90
39875;DHT22;25547;52.530;13.194;2023-02-05T06:31:01;-1.90;99.90
39875;DHT22;25547;52.530;13.194;2023-02-05T06:33:31;-1.90;99.90
39875;DHT22;25547;52.530;13.194;2023-02-05T06:35:59;-1.80;99.90
39875;DHT22;25547;52.530;13.194;2023-02-05T06:38:27;-1.70;99.90
39875;DHT22;25547;52.530;13.194;2023-02-05T06:40:55;-1.60;99.90
39875;DHT22;25547;52.530;13.194;2023-02-05T06:43:21;-1.60;99.90
39875;DHT22;25547;52.530;13.194;2023-02-05T06:45:49;-1.60;99.90
39875;DHT22;25547;52.530;13.194;2023-02-05T06:48:20;-1.60;99.90
39875;DHT22;25547;52.530;13.194;2023-02-05T06:50:45;-1.50;99.90
39875;DHT22;25547;52.530;13.194;2023-02-05T06:53:11;-1.50;99.90
39875;DHT22;25547;52.530;13.194;2023-02-05T06:55:37;-1.40;99.90
39875;DHT22;25547;52.530;13.194;2023-02-05T06:58:06;-1.50;99.90
39875;DHT22;25547;52.530;13.194;2023-02-05T07:00:32;-1.60;99.90
39875;DHT22;25547;52.530;13.194;2023-02-05T07:02:58;-1.60;99.90
39875;DHT22;25547;52.530;13.194;2023-02-05T07:05:23;-1.80;99.90
39875;DHT22;25547;52.530;13.194;2023-02-05T07:07:54;-1.80;99.90
39875;DHT22;25547;52.530;13.194;2023-02-05T07:10:22;-1.90;99.90
39875;DHT22;25547;52.530;13.194;2023-02-05T07:12:50;-1.80;99.90
39875;DHT22;25547;52.530;13.194;2023-02-05T07:15:18;-1.80;99.90
39875;DHT22;25547;52.530;13.194;2023-02-05T07:17:43;-1.90;99.90
39875;DHT22;25547;52.530;13.194;2023-02-05T07:20:09;-1.90;99.90
39875;DHT22;25547;52.530;13.194;2023-02-05T07:22:37;-1.90;99.90
39875;DHT22;25547;52.530;13.194;2023-02-05T07:25:06;-2.00;99.90
39875;DHT22;25547;52.530;13.194;2023-02-05T07:27:35;-1.90;99.90
39875;DHT22;25547;52.530;13.194;2023-02-05T07:30:01;-1.90;99.90
39875;DHT22;25547;52.530;13.194;2023-02-05T07:32:26;-1.90;99.90
39875;DHT22;25547;52.530;13.194;2023-02-05T07:34:54;-1.80;99.90
39875;DHT22;25547;52.530;13.194;2023-02-05T07:37:20;-1.90;99.90
39875;DHT22;25547;52.530;13.194;2023-02-05T07:39:45;-1.90;99.90
39875;DHT22;25547;52.530;13.194;2023-02-05T07:42:11;-1.90;99.90
39875;DHT22;25547;52.530;13.194;2023-02-05T07:44:39;-1.80;99.90
39875;DHT22;25547;52.530;13.194;2023-02-05T07:47:05;-1.80;99.90
39875;DHT22;25547;52.530;13.194;2023-02-05T07:49:33;-1.80;99.90
39875;DHT22;25547;52.530;13.194;2023-02-05T07:52:03;-1.80;99.90
39875;DHT22;25547;52.530;13.194;2023-02-05T07:54:29;-1.70;99.90
39875;DHT22;25547;52.530;13.194;2023-02-05T07:56:55;-1.60;99.90
39875;DHT22;25547;52.530;13.194;2023-02-05T07:59:22;-1.50;99.90
39875;DHT22;25547;52.530;13.194;2023-02-05T08:01:48;-1.50;99.90
39875;DHT22;25547;52.530;13.194;2023-02-05T08:04:16;-1.50;99.90
39875;DHT22;25547;52.530;13.194;2023-02-05T08:06:44;-1.50;99.90
39875;DHT22;25547;52.530;13.194;2023-02-05T08:09:10;-1.50;99.90
39875;DHT22;25547;52.530;13.194;2023-02-05T08:11:35;-1.40;99.90
39875;DHT22;25547;52.530;13.194;2023-02-05T08:14:01;-1.50;99.90
39875;DHT22;25547;52.530;13.194;2023-02-05T08:16:27;-1.30;99.90
39875;DHT22;25547;52.530;13.194;2023-02-05T08:18:52;-1.20;99.90
39875;DHT22;25547;52.530;13.194;2023-02-05T08:21:21;-1.30;99.90
39875;DHT22;25547;52.530;13.194;2023-02-05T08:23:49;-1.30;99.90
39875;DHT22;25547;52.530;13.194;2023-02-05T08:26:16;-1.20;99.90
39875;DHT22;25547;52.530;13.194;2023-02-05T08:28:42;-1.20;99.90
39875;DHT22;25547;52.530;13.194;2023-02-05T08:31:13;-1.20;99.90
39875;DHT22;25547;52.530;13.194;2023-02-05T08:33:42;-1.20;99.90
39875;DHT22;25547;52.530;13.194;2023-02-05T08:36:08;-1.10;99.90
39875;DHT22;25547;52.530;13.194;2023-02-05T08:38:34;-1.10;99.90
39875;DHT22;25547;52.530;13.194;2023-02-05T08:41:07;-1.10;99.90
39875;DHT22;25547;52.530;13.194;2023-02-05T08:43:45;-0.90;99.90
39875;DHT22;25547;52.530;13.194;2023-02-05T08:46:15;-0.80;99.90
39875;DHT22;25547;52.530;13.194;2023-02-05T08:48:45;-0.80;99.90
39875;DHT22;25547;52.530;13.194;2023-02-05T08:51:12;-0.80;99.90
39875;DHT22;25547;52.530;13.194;2023-02-05T08:53:38;-0.60;99.90
39875;DHT22;25547;52.530;13.194;2023-02-05T08:56:05;-0.50;99.90
39875;DHT22;25547;52.530;13.194;2023-02-05T08:58:31;-0.50;99.90
39875;DHT22;25547;52.530;13.194;2023-02-05T09:01:02;-0.50;99.90
39875;DHT22;25547;52.530;13.194;2023-02-05T09:03:29;-0.40;99.90
39875;DHT22;25547;52.530;13.194;2023-02-05T09:05:56;-0.50;99.90
39875;DHT22;25547;52.530;13.194;2023-02-05T09:08:23;-0.50;99.90
39875;DHT22;25547;52.530;13.194;2023-02-05T09:10:51;-0.60;99.90
39875;DHT22;25547;52.530;13.194;2023-02-05T09:13:21;-0.70;99.90
39875;DHT22;25547;52.530;13.194;2023-02-05T09:15:47;-0.70;99.90
39875;DHT22;25547;52.530;13.194;2023-02-05T09:18:13;-0.70;99.90
39875;DHT22;25547;52.530;13.194;2023-02-05T09:20:50;-0.60;99.90
39875;DHT22;25547;52.530;13.194;2023-02-05T09:23:17;-0.60;99.90
39875;DHT22;25547;52.530;13.194;2023-02-05T09:25:43;-0.50;99.90
39875;DHT22;25547;52.530;13.194;2023-02-05T09:28:11;-0.50;99.90
39875;DHT22;25547;52.530;13.194;2023-02-05T09:30:39;-0.50;99.90
39875;DHT22;25547;52.530;13.194;2023-02-05T09:33:06;-0.50;99.90
39875;DHT22;25547;52.530;13.194;2023-02-05T09:35:32;-0.30;99.90
39875;DHT22;25547;52.530;13.194;2023-02-05T09:37:59;-0.30;99.90
39875;DHT22;25547;52.530;13.194;2023-02-05T09:40:30;-0.10;99.90
39875;DHT22;25547;52.530;13.194;2023-02-05T09:49:33;-0.10;99.90
39875;DHT22;25547;52.530;13.194;2023-02-05T09:52:19;0.00;99.90
39875;DHT22;25547;52.530;13.194;2023-02-05T09:54:49;0.10;99.90
39875;DHT22;25547;52.530;13.194;2023-02-05T09:57:23;0.00;99.90
39875;DHT22;25547;52.530;13.194;2023-02-05T09:59:55;0.10;99.90
39875;DHT22;25547;52.530;13.194;2023-02-05T10:04:54;0.10;99.90
39875;DHT22;25547;52.530;13.194;2023-02-05T10:10:27;0.40;99.90
39875;DHT22;25547;52.530;13.194;2023-02-05T10:13:11;0.30;99.90
39875;DHT22;25547;52.530;13.194;2023-02-05T10:18:32;0.30;99.90
39875;DHT22;25547;52.530;13.194;2023-02-05T10:26:50;0.80;99.90
39875;DHT22;25547;52.530;13.194;2023-02-05T10:37:35;0.80;98.30
39875;DHT22;25547;52.530;13.194;2023-02-05T10:40:11;0.70;98.10
39875;DHT22;25547;52.530;13.194;2023-02-05T10:42:46;0.70;98.10
39875;DHT22;25547;52.530;13.194;2023-02-05T10:45:18;0.80;97.70
39875;DHT22;25547;52.530;13.194;2023-02-05T10:50:26;1.00;97.80
39875;DHT22;25547;52.530;13.194;2023-02-05T10:52:52;1.00;97.10
39875;DHT22;25547;52.530;13.194;2023-02-05T10:55:18;0.90;96.90
39875;DHT22;25547;52.530;13.194;2023-02-05T10:57:46;0.80;96.90
39875;DHT22;25547;52.530;13.194;2023-02-05T11:00:20;1.00;97.20
39875;DHT22;25547;52.530;13.194;2023-02-05T11:02:52;1.00;96.70
39875;DHT22;25547;52.530;13.194;2023-02-05T11:05:40;1.00;96.70
39875;DHT22;25547;52.530;13.194;2023-02-05T11:08:33;1.10;96.80
39875;DHT22;25547;52.530;13.194;2023-02-05T11:11:01;1.10;97.00
39875;DHT22;25547;52.530;13.194;2023-02-05T11:13:27;1.10;97.00
39875;DHT22;25547;52.530;13.194;2023-02-05T11:16:04;1.30;97.50
39875;DHT22;25547;52.530;13.194;2023-02-05T11:18:44;1.40;97.00
39875;DHT22;25547;52.530;13.194;2023-02-05T11:21:12;1.20;96.70
39875;DHT22;25547;52.530;13.194;2023-02-05T11:23:56;1.20;96.90
39875;DHT22;25547;52.530;13.194;2023-02-05T11:26:25;1.30;96.90
39875;DHT22;25547;52.530;13.194;2023-02-05T11:28:54;1.40;96.70
39875;DHT22;25547;52.530;13.194;2023-02-05T11:31:31;1.30;96.70
39875;DHT22;25547;52.530;13.194;2023-02-05T11:34:10;1.30;97.10
39875;DHT22;25547;52.530;13.194;2023-02-05T11:36:38;1.50;97.20
39875;DHT22;25547;52.530;13.194;2023-02-05T11:39:13;1.60;96.80
39875;DHT22;25547;52.530;13.194;2023-02-05T11:41:53;1.40;96.40
39875;DHT22;25547;52.530;13.194;2023-02-05T11:44:29;1.50;97.00
39875;DHT22;25547;52.530;13.194;2023-02-05T11:47:02;1.40;96.90
39875;DHT22;25547;52.530;13.194;2023-02-05T11:49:37;1.30;97.00
39875;DHT22;25547;52.530;13.194;2023-02-05T11:52:14;1.40;97.30
39875;DHT22;25547;52.530;13.194;2023-02-05T11:54:47;1.50;97.20
39875;DHT22;25547;52.530;13.194;2023-02-05T12:02:29;1.80;97.20
39875;DHT22;25547;52.530;13.194;2023-02-05T12:16:47;1.70;96.90
39875;DHT22;25547;52.530;13.194;2023-02-05T12:19:21;1.70;96.70
39875;DHT22;25547;52.530;13.194;2023-02-05T12:21:49;1.70;96.40
39875;DHT22;25547;52.530;13.194;2023-02-05T12:26:48;1.50;96.20
39875;DHT22;25547;52.530;13.194;2023-02-05T12:37:32;1.50;96.10
39875;DHT22;25547;52.530;13.194;2023-02-05T12:43:05;1.70;95.90
39875;DHT22;25547;52.530;13.194;2023-02-05T12:59:13;1.60;95.00
39875;DHT22;25547;52.530;13.194;2023-02-05T13:08:11;1.70;94.80
39875;DHT22;25547;52.530;13.194;2023-02-05T13:10:23;1.60;94.90
39875;DHT22;25547;52.530;13.194;2023-02-05T13:12:57;1.70;94.70
39875;DHT22;25547;52.530;13.194;2023-02-05T13:15:27;1.70;94.60
39875;DHT22;25547;52.530;13.194;2023-02-05T13:17:56;1.80;94.40
39875;DHT22;25547;52.530;13.194;2023-02-05T13:20:38;1.70;94.10
39875;DHT22;25547;52.530;13.194;2023-02-05T13:23:23;1.70;94.30
39875;DHT22;25547;52.530;13.194;2023-02-05T13:26:10;1.80;94.10
39875;DHT22;25547;52.530;13.194;2023-02-05T13:29:10;1.80;94.00
39875;DHT22;25547;52.530;13.194;2023-02-05T13:31:39;1.90;94.20
39875;DHT22;25547;52.530;13.194;2023-02-05T13:34:08;1.80;93.80
39875;DHT22;25547;52.530;13.194;2023-02-05T13:39:57;1.90;94.10
39875;DHT22;25547;52.530;13.194;2023-02-05T13:42:37;1.90;94.00
39875;DHT22;25547;52.530;13.194;2023-02-05T13:48:27;2.00;94.30
39875;DHT22;25547;52.530;13.194;2023-02-05T13:51:04;1.90;94.00
39875;DHT22;25547;52.530;13.194;2023-02-05T13:54:10;1.90;93.80
39875;DHT22;25547;52.530;13.194;2023-02-05T13:59:50;1.80;94.10
39875;DHT22;25547;52.530;13.194;2023-02-05T14:04:59;1.70;93.90
39875;DHT22;25547;52.530;13.194;2023-02-05T14:07:32;1.70;93.80
39875;DHT22;25547;52.530;13.194;2023-02-05T14:10:00;1.80;93.80
39875;DHT22;25547;52.530;13.194;2023-02-05T14:12:35;1.90;94.10
39875;DHT22;25547;52.530;13.194;2023-02-05T14:22:52;1.90;94.20
39875;DHT22;25547;52.530;13.194;2023-02-05T14:28:01;1.90;94.30
39875;DHT22;25547;52.530;13.194;2023-02-05T14:32:58;1.80;94.20
39875;DHT22;25547;52.530;13.194;2023-02-05T14:35:29;1.80;93.90
39875;DHT22;25547;52.530;13.194;2023-02-05T14:38:01;1.80;93.90
39875;DHT22;25547;52.530;13.194;2023-02-05T14:40:31;1.80;94.10
39875;DHT22;25547;52.530;13.194;2023-02-05T14:43:20;1.80;94.50
39875;DHT22;25547;52.530;13.194;2023-02-05T14:45:51;1.90;94.80
39875;DHT22;25547;52.530;13.194;2023-02-05T14:48:29;1.80;95.00
39875;DHT22;25547;52.530;13.194;2023-02-05T14:51:30;1.80;95.20
39875;DHT22;25547;52.530;13.194;2023-02-05T14:53:59;1.70;95.20
39875;DHT22;25547;52.530;13.194;2023-02-05T14:56:50;1.60;95.00
39875;DHT22;25547;52.530;13.194;2023-02-05T14:59:38;1.60;95.20
39875;DHT22;25547;52.530;13.194;2023-02-05T15:07:47;1.70;94.90
39875;DHT22;25547;52.530;13.194;2023-02-05T15:10:21;1.50;95.10
39875;DHT22;25547;52.530;13.194;2023-02-05T15:13:10;1.50;95.30
39875;DHT22;25547;52.530;13.194;2023-02-05T15:15:38;1.60;95.60
39875;DHT22;25547;52.530;13.194;2023-02-05T15:18:13;1.60;95.60
39875;DHT22;25547;52.530;13.194;2023-02-05T15:20:40;1.60;95.80
39875;DHT22;25547;52.530;13.194;2023-02-05T15:23:34;1.60;95.90
39875;DHT22;25547;52.530;13.194;2023-02-05T15:26:13;1.60;96.00
39875;DHT22;25547;52.530;13.194;2023-02-05T15:29:06;1.50;96.00
39875;DHT22;25547;52.530;13.194;2023-02-05T15:31:53;1.40;96.10
39875;DHT22;25547;52.530;13.194;2023-02-05T15:34:29;1.40;96.30
39875;DHT22;25547;52.530;13.194;2023-02-05T15:42:13;1.40;96.70
39875;DHT22;25547;52.530;13.194;2023-02-05T15:44:40;1.40;96.70
39875;DHT22;25547;52.530;13.194;2023-02-05T15:47:16;1.40;96.80
39875;DHT22;25547;52.530;13.194;2023-02-05T15:49:44;1.40;97.00
39875;DHT22;25547;52.530;13.194;2023-02-05T15:52:22;1.40;97.00
39875;DHT22;25547;52.530;13.194;2023-02-05T15:54:52;1.40;97.10
39875;DHT22;25547;52.530;13.194;2023-02-05T15:57:22;1.30;97.00
39875;DHT22;25547;52.530;13.194;2023-02-05T15:59:51;1.30;97.10
39875;DHT22;25547;52.530;13.194;2023-02-05T16:04:53;1.30;97.40
39875;DHT22;25547;52.530;13.194;2023-02-05T16:07:28;1.20;97.70
39875;DHT22;25547;52.530;13.194;2023-02-05T16:09:59;1.20;97.40
39875;DHT22;25547;52.530;13.194;2023-02-05T16:12:28;1.20;97.30
39875;DHT22;25547;52.530;13.194;2023-02-05T16:15:04;1.10;97.40
39875;DHT22;25547;52.530;13.194;2023-02-05T16:17:40;1.20;97.40
39875;DHT22;25547;52.530;13.194;2023-02-05T16:20:34;1.10;97.40
39875;DHT22;25547;52.530;13.194;2023-02-05T16:23:05;1.10;97.70
39875;DHT22;25547;52.530;13.194;2023-02-05T16:28:57;1.10;98.00
39875;DHT22;25547;52.530;13.194;2023-02-05T16:30:59;1.10;98.10
39875;DHT22;25547;52.530;13.194;2023-02-05T16:33:39;1.00;98.20
39875;DHT22;25547;52.530;13.194;2023-02-05T16:36:13;0.90;98.30
39875;DHT22;25547;52.530;13.194;2023-02-05T16:38:42;0.90;98.50
39875;DHT22;25547;52.530;13.194;2023-02-05T16:41:29;0.80;98.60
39875;DHT22;25547;52.530;13.194;2023-02-05T16:43:57;0.80;98.90
39875;DHT22;25547;52.530;13.194;2023-02-05T16:46:29;0.80;99.00
39875;DHT22;25547;52.530;13.194;2023-02-05T16:48:57;0.80;99.10
39875;DHT22;25547;52.530;13.194;2023-02-05T16:54:25;0.80;99.50
39875;DHT22;25547;52.530;13.194;2023-02-05T16:59:25;0.70;99.70
39875;DHT22;25547;52.530;13.194;2023-02-05T17:01:52;0.70;99.90
39875;DHT22;25547;52.530;13.194;2023-02-05T17:04:23;0.70;99.90
39875;DHT22;25547;52.530;13.194;2023-02-05T17:06:55;0.70;99.90
39875;DHT22;25547;52.530;13.194;2023-02-05T17:11:56;0.60;99.90
39875;DHT22;25547;52.530;13.194;2023-02-05T17:14:58;0.70;99.90
39875;DHT22;25547;52.530;13.194;2023-02-05T17:17:27;0.70;99.90
39875;DHT22;25547;52.530;13.194;2023-02-05T17:22:38;0.80;99.90
39875;DHT22;25547;52.530;13.194;2023-02-05T17:25:04;0.80;99.90
39875;DHT22;25547;52.530;13.194;2023-02-05T17:27:37;0.70;99.90
39875;DHT22;25547;52.530;13.194;2023-02-05T17:30:13;0.70;99.90
39875;DHT22;25547;52.530;13.194;2023-02-05T17:32:40;0.80;99.90
39875;DHT22;25547;52.530;13.194;2023-02-05T17:35:15;0.80;99.90
39875;DHT22;25547;52.530;13.194;2023-02-05T17:37:46;0.70;99.90
39875;DHT22;25547;52.530;13.194;2023-02-05T17:40:13;0.70;99.90
39875;DHT22;25547;52.530;13.194;2023-02-05T17:42:41;0.70;99.90
39875;DHT22;25547;52.530;13.194;2023-02-05T17:45:27;0.70;99.90
39875;DHT22;25547;52.530;13.194;2023-02-05T17:47:54;0.60;99.90
39875;DHT22;25547;52.530;13.194;2023-02-05T17:50:20;0.60;99.90
39875;DHT22;25547;52.530;13.194;2023-02-05T17:52:46;0.60;99.90
39875;DHT22;25547;52.530;13.194;2023-02-05T17:55:18;0.50;99.90
39875;DHT22;25547;52.530;13.194;2023-02-05T17:57:44;0.50;99.90
39875;DHT22;25547;52.530;13.194;2023-02-05T18:00:16;0.50;99.90
39875;DHT22;25547;52.530;13.194;2023-02-05T18:02:42;0.50;99.90
39875;DHT22;25547;52.530;13.194;2023-02-05T18:05:08;0.50;99.90
39875;DHT22;25547;52.530;13.194;2023-02-05T18:10:20;0.40;99.90
39875;DHT22;25547;52.530;13.194;2023-02-05T18:12:46;0.20;99.90
39875;DHT22;25547;52.530;13.194;2023-02-05T18:15:14;0.10;99.90
39875;DHT22;25547;52.530;13.194;2023-02-05T18:17:40;0.00;99.90
39875;DHT22;25547;52.530;13.194;2023-02-05T18:20:07;0.00;99.90
39875;DHT22;25547;52.530;13.194;2023-02-05T18:22:33;0.10;99.90